createdAt,value
2022-08-24T00:02:07.762Z,35.42
2022-08-24T00:04:42.235Z,37.10
2022-08-24T00:07:21.378Z,38.80
2022-08-24T00:09:56.450Z,40.67
2022-08-24T00:12:26.112Z,36.70
2022-08-24T00:14:55.217Z,33.53
2022-08-24T00:17:25.752Z,35.38
2022-08-24T00:19:54.743Z,34.80
2022-08-24T00:22:23.479Z,37.28
2022-08-24T00:24:52.281Z,39.17
2022-08-24T00:27:21.354Z,36.05
2022-08-24T00:29:50.092Z,35.08
2022-08-24T00:32:18.953Z,33.58
2022-08-24T00:34:59.248Z,34.00
2022-08-24T00:37:29.895Z,29.08
2022-08-24T00:39:59.515Z,28.13
2022-08-24T00:42:28.601Z,27.42
2022-08-24T00:44:58.389Z,27.58
2022-08-24T00:47:33.268Z,27.77
2022-08-24T00:50:07.151Z,23.88
2022-08-24T00:52:42.094Z,22.55
2022-08-24T00:55:17.464Z,25.25
2022-08-24T00:57:50.634Z,23.83
2022-08-24T01:00:23.733Z,24.10
2022-08-24T01:02:55.732Z,20.98
2022-08-24T01:05:26.603Z,25.77
2022-08-24T01:07:55.647Z,23.27
2022-08-24T01:10:28.476Z,30.30
2022-08-24T01:13:01.385Z,36.40
2022-08-24T01:15:31.982Z,28.55
2022-08-24T01:18:20.326Z,31.30
2022-08-24T01:20:57.643Z,37.83
2022-08-24T01:23:37.157Z,37.50
2022-08-24T01:26:07.215Z,44.80
2022-08-24T01:28:39.983Z,43.80
2022-08-24T01:31:10.244Z,47.53
2022-08-24T01:33:39.420Z,59.03
2022-08-24T01:36:16.723Z,61.08
2022-08-24T01:38:48.094Z,57.00
2022-08-24T01:41:17.229Z,57.22
2022-08-24T01:43:46.433Z,59.63
2022-08-24T01:46:16.224Z,58.50
2022-08-24T01:48:45.743Z,62.35
2022-08-24T01:51:14.947Z,66.78
2022-08-24T01:53:43.977Z,66.82
2022-08-24T01:56:14.444Z,65.45
2022-08-24T01:58:46.087Z,68.00
2022-08-24T02:01:16.453Z,60.30
2022-08-24T02:03:46.159Z,63.88
2022-08-24T02:06:19.005Z,73.10
2022-08-24T02:08:48.195Z,71.80
2022-08-24T02:11:19.400Z,63.65
2022-08-24T02:13:48.307Z,68.70
2022-08-24T02:16:17.460Z,65.72
2022-08-24T02:18:46.929Z,60.00
2022-08-24T02:21:16.958Z,50.08
2022-08-24T02:23:46.024Z,48.95
2022-08-24T02:26:15.136Z,50.63
2022-08-24T02:28:45.741Z,44.47
2022-08-24T02:31:16.735Z,47.67
2022-08-24T02:33:47.299Z,46.72
2022-08-24T02:36:25.553Z,43.55
2022-08-24T02:38:55.695Z,46.67
2022-08-24T02:41:25.775Z,50.03
2022-08-24T02:43:58.115Z,46.78
2022-08-24T02:46:29.817Z,49.50
2022-08-24T02:49:10.487Z,49.92
2022-08-24T02:51:45.384Z,50.47
2022-08-24T02:54:19.835Z,46.67
2022-08-24T02:56:52.120Z,45.78
2022-08-24T02:59:24.777Z,46.45
2022-08-24T03:01:55.074Z,48.10
2022-08-24T03:04:26.363Z,50.30
2022-08-24T03:06:55.304Z,53.65
2022-08-24T03:09:24.949Z,54.60
2022-08-24T03:11:59.361Z,53.28
2022-08-24T03:14:29.851Z,55.75
2022-08-24T03:16:58.861Z,56.17
2022-08-24T03:19:27.931Z,53.03
2022-08-24T03:21:57.667Z,55.28
2022-08-24T03:24:28.341Z,59.10
2022-08-24T03:26:57.703Z,59.47
2022-08-24T03:29:33.761Z,54.03
2022-08-24T03:32:05.189Z,59.40
2022-08-24T03:34:34.467Z,57.95
2022-08-24T03:37:03.869Z,58.17
2022-08-24T03:39:33.075Z,58.78
2022-08-24T03:42:02.089Z,61.20
2022-08-24T03:44:32.581Z,59.70
2022-08-24T03:47:01.845Z,57.60
2022-08-24T03:49:33.067Z,64.28
2022-08-24T03:52:02.472Z,68.38
2022-08-24T03:54:31.645Z,67.88
2022-08-24T03:57:00.680Z,60.90
2022-08-24T03:59:29.662Z,65.70
2022-08-24T04:02:02.209Z,73.75
2022-08-24T04:04:31.817Z,70.97
2022-08-24T04:07:01.029Z,68.45
2022-08-24T04:09:30.322Z,63.87
2022-08-24T04:11:59.793Z,67.32
2022-08-24T04:14:29.175Z,60.07
2022-08-24T04:17:08.530Z,61.57
2022-08-24T04:19:57.612Z,58.67
2022-08-24T04:22:34.280Z,60.20
2022-08-24T04:25:09.167Z,60.80
2022-08-24T04:27:40.463Z,64.97
2022-08-24T04:30:14.079Z,65.18
2022-08-24T04:33:05.549Z,62.72
2022-08-24T04:35:38.940Z,57.90
2022-08-24T04:38:08.572Z,49.05
2022-08-24T04:40:40.559Z,44.65
2022-08-24T04:43:10.412Z,42.20
2022-08-24T04:45:40.686Z,35.58
2022-08-24T04:48:11.387Z,36.33
2022-08-24T04:50:42.701Z,34.50
2022-08-24T04:53:13.565Z,32.95
2022-08-24T04:55:49.098Z,33.42
2022-08-24T04:58:20.466Z,27.27
2022-08-24T05:00:49.701Z,24.58
2022-08-24T05:03:20.324Z,23.17
2022-08-24T05:05:51.368Z,23.58
2022-08-24T05:08:21.740Z,22.30
2022-08-24T05:10:52.348Z,22.42
2022-08-24T05:13:22.552Z,18.73
2022-08-24T05:15:51.428Z,19.42
2022-08-24T05:18:22.219Z,18.88
2022-08-24T05:20:51.040Z,18.00
2022-08-24T05:23:20.802Z,18.88
2022-08-24T05:25:50.054Z,18.70
2022-08-24T05:28:19.253Z,19.67
2022-08-24T05:30:48.333Z,18.25
2022-08-24T05:33:21.945Z,20.85
2022-08-24T05:35:50.906Z,19.45
2022-08-24T05:38:19.559Z,19.48
2022-08-24T05:40:48.749Z,18.70
2022-08-24T05:43:17.950Z,22.63
2022-08-24T05:45:47.754Z,22.08
2022-08-24T05:48:16.709Z,22.55
2022-08-24T05:51:19.717Z,20.58
2022-08-24T05:53:58.009Z,20.48
2022-08-24T05:56:32.084Z,23.75
2022-08-24T05:59:02.663Z,22.65
2022-08-24T06:01:31.694Z,25.40
2022-08-24T06:04:01.564Z,25.85
2022-08-24T06:06:32.767Z,25.25
2022-08-24T06:09:02.844Z,26.25
2022-08-24T06:11:35.298Z,24.83
2022-08-24T06:14:08.286Z,24.83
2022-08-24T06:16:50.817Z,28.55
2022-08-24T06:19:20.846Z,24.10
2022-08-24T06:21:53.657Z,22.15
2022-08-24T06:24:44.677Z,20.40
2022-08-24T06:27:22.900Z,20.38
2022-08-24T06:29:56.371Z,20.08
2022-08-24T06:32:44.253Z,20.73
2022-08-24T06:35:23.364Z,21.50
2022-08-24T06:37:54.430Z,20.60
2022-08-24T06:40:24.832Z,19.05
2022-08-24T06:42:54.085Z,18.85
2022-08-24T06:45:48.371Z,22.17
2022-08-24T06:48:19.794Z,18.50
2022-08-24T06:50:49.799Z,19.77
2022-08-24T06:53:20.458Z,19.58
2022-08-24T06:55:51.524Z,18.85
2022-08-24T06:58:21.649Z,19.30
2022-08-24T07:00:51.641Z,22.20
2022-08-24T07:03:22.939Z,16.77
2022-08-24T07:06:08.151Z,18.02
2022-08-24T07:08:41.886Z,15.88
2022-08-24T07:11:14.402Z,14.75
2022-08-24T07:13:44.777Z,13.45
2022-08-24T07:16:14.537Z,16.05
2022-08-24T07:18:49.716Z,15.88
2022-08-24T07:21:22.334Z,19.75
2022-08-24T07:23:57.370Z,15.07
2022-08-24T07:26:29.899Z,13.63
2022-08-24T07:29:05.446Z,15.02
2022-08-24T07:31:42.536Z,17.33
2022-08-24T07:34:37.541Z,15.00
2022-08-24T07:37:08.325Z,15.65
2022-08-24T07:39:42.512Z,16.77
2022-08-24T07:42:15.012Z,16.00
2022-08-24T07:44:48.022Z,16.02
2022-08-24T07:50:12.189Z,17.38
2022-08-24T07:52:42.679Z,14.85
2022-08-24T07:55:14.308Z,15.80
2022-08-24T07:57:45.209Z,13.27
2022-08-24T08:00:19.639Z,15.68
2022-08-24T08:02:53.284Z,18.40
2022-08-24T08:05:25.242Z,15.35
2022-08-24T08:07:55.879Z,15.38
2022-08-24T08:10:30.797Z,17.02
2022-08-24T08:13:00.065Z,16.95
2022-08-24T08:15:29.273Z,15.88
2022-08-24T08:18:06.937Z,14.15
2022-08-24T08:20:40.423Z,14.38
2022-08-24T08:23:42.085Z,14.50
2022-08-24T08:26:21.988Z,12.68
2022-08-24T08:29:04.398Z,14.25
2022-08-24T08:31:35.481Z,15.23
2022-08-24T08:34:06.304Z,12.95
2022-08-24T08:36:36.262Z,12.35
2022-08-24T08:39:05.813Z,14.88
2022-08-24T08:42:20.410Z,12.63
2022-08-24T08:45:03.950Z,17.52
2022-08-24T08:48:15.665Z,13.18
2022-08-24T08:51:00.549Z,12.60
2022-08-24T08:54:02.987Z,12.85
2022-08-24T08:56:42.217Z,14.85
2022-08-24T08:59:29.713Z,11.63
2022-08-24T09:02:15.424Z,10.60
2022-08-24T09:05:24.534Z,12.07
2022-08-24T09:08:03.723Z,10.80
2022-08-24T09:10:54.641Z,9.00
2022-08-24T09:13:49.491Z,10.82
2022-08-24T09:16:55.562Z,10.88
2022-08-24T09:19:34.019Z,10.88
2022-08-24T09:22:12.101Z,9.38
2022-08-24T09:24:59.822Z,8.90
2022-08-24T09:27:54.593Z,8.20
2022-08-24T09:30:26.286Z,8.90
2022-08-24T09:33:20.823Z,7.68
2022-08-24T09:36:09.308Z,10.57
2022-08-24T09:39:00.245Z,10.35
2022-08-24T09:42:05.994Z,7.57
2022-08-24T09:45:14.482Z,9.90
2022-08-24T09:48:16.028Z,7.40
2022-08-24T09:50:59.207Z,8.48
2022-08-24T09:54:03.646Z,10.63
2022-08-24T09:57:09.278Z,7.38
2022-08-24T10:00:01.164Z,7.82
2022-08-24T10:02:44.853Z,8.40
2022-08-24T10:05:36.405Z,6.35
2022-08-24T10:08:15.748Z,8.13
2022-08-24T10:10:53.333Z,9.18
2022-08-24T10:13:29.575Z,6.57
2022-08-24T10:16:20.575Z,13.35
2022-08-24T10:19:01.280Z,5.13
2022-08-24T10:21:42.380Z,7.80
2022-08-24T10:24:35.999Z,9.98
2022-08-24T10:27:32.656Z,7.88
2022-08-24T10:30:28.787Z,7.68
2022-08-24T10:33:13.433Z,7.22
2022-08-24T10:35:59.789Z,8.18
2022-08-24T10:38:52.960Z,5.97
2022-08-24T10:41:53.310Z,8.35
2022-08-24T10:44:46.987Z,7.85
2022-08-24T10:47:22.796Z,9.35
2022-08-24T10:50:17.212Z,8.50
2022-08-24T10:53:07.416Z,8.77
2022-08-24T10:55:39.367Z,6.95
2022-08-24T10:58:28.794Z,10.88
2022-08-24T11:01:12.785Z,8.60
2022-08-24T11:03:50.225Z,7.22
2022-08-24T11:06:21.036Z,9.65
2022-08-24T11:08:55.576Z,8.00
2022-08-24T11:11:29.741Z,8.05
2022-08-24T11:14:00.723Z,7.30
2022-08-24T11:16:33.524Z,7.82
2022-08-24T11:19:05.328Z,8.27
2022-08-24T11:21:54.593Z,10.35
2022-08-24T11:24:39.605Z,7.68
2022-08-24T11:27:19.670Z,10.82
2022-08-24T11:30:05.054Z,7.93
2022-08-24T11:32:40.478Z,9.65
2022-08-24T11:35:18.554Z,10.73
2022-08-24T11:37:48.393Z,11.32
2022-08-24T11:40:18.721Z,8.68
2022-08-24T11:43:17.691Z,6.93
2022-08-24T11:45:56.988Z,6.63
2022-08-24T11:48:36.235Z,9.07
2022-08-24T11:51:12.751Z,7.80
2022-08-24T11:53:54.159Z,7.95
2022-08-24T11:56:27.293Z,9.75
2022-08-24T11:59:04.107Z,8.82
2022-08-24T12:01:44.852Z,10.27
2022-08-24T12:04:26.858Z,9.60
2022-08-24T12:07:02.192Z,6.25
2022-08-24T12:09:46.790Z,10.23
2022-08-24T12:12:24.066Z,6.57
2022-08-24T12:15:01.865Z,10.48
2022-08-24T12:17:36.411Z,4.93
2022-08-24T12:20:16.131Z,7.53
2022-08-24T12:22:45.642Z,10.93
2022-08-24T12:25:29.254Z,11.93
2022-08-24T12:27:59.605Z,6.35
2022-08-24T12:30:30.416Z,8.55
2022-08-24T12:33:04.468Z,14.18
2022-08-24T12:35:37.746Z,8.65
2022-08-24T12:38:13.014Z,10.13
2022-08-24T12:40:44.483Z,8.40
2022-08-24T12:43:19.943Z,9.98
2022-08-24T12:45:51.391Z,9.68
2022-08-24T12:48:24.515Z,8.23
2022-08-24T12:51:10.750Z,8.48
2022-08-24T12:54:18.132Z,10.88
2022-08-24T12:57:06.610Z,11.43
2022-08-24T12:59:41.736Z,8.48
2022-08-24T13:02:34.320Z,10.35
2022-08-24T13:05:15.280Z,8.70
2022-08-24T13:07:47.442Z,8.88
2022-08-24T13:10:38.962Z,12.57
2022-08-24T13:13:20.954Z,9.52
2022-08-24T13:16:01.898Z,11.38
2022-08-24T13:19:07.721Z,9.98
2022-08-24T13:21:46.046Z,10.65
2022-08-24T13:24:53.369Z,10.20
2022-08-24T13:27:47.034Z,12.70
2022-08-24T13:30:33.821Z,9.20
2022-08-24T13:33:07.101Z,8.70
2022-08-24T13:35:56.018Z,8.63
2022-08-24T13:38:52.129Z,8.55
2022-08-24T13:41:43.360Z,12.52
2022-08-24T13:44:23.850Z,12.98
2022-08-24T13:47:04.149Z,10.40
2022-08-24T13:49:50.602Z,13.13
2022-08-24T13:52:29.892Z,6.53
2022-08-24T13:55:14.924Z,11.77
2022-08-24T13:57:46.404Z,9.23
2022-08-24T14:00:41.913Z,7.97
2022-08-24T14:03:30.400Z,13.38
2022-08-24T14:06:21.410Z,10.95
2022-08-24T14:09:10.877Z,9.50
2022-08-24T14:12:09.157Z,6.75
2022-08-24T14:14:55.748Z,9.75
2022-08-24T14:17:49.057Z,9.82
2022-08-24T14:21:03.408Z,12.90
2022-08-24T14:23:50.200Z,9.55
2022-08-24T14:27:11.018Z,11.13
2022-08-24T14:30:35.525Z,7.60
2022-08-24T14:33:16.294Z,11.88
2022-08-24T14:36:11.193Z,9.73
2022-08-24T14:38:53.780Z,8.32
2022-08-24T14:41:32.058Z,11.98
2022-08-24T14:44:09.194Z,10.50
2022-08-24T14:46:48.212Z,6.05
2022-08-24T14:49:23.224Z,12.63
2022-08-24T14:52:11.422Z,12.43
2022-08-24T14:54:56.574Z,11.38
2022-08-24T14:57:46.231Z,7.95
2022-08-24T15:00:20.516Z,10.60
2022-08-24T15:03:16.862Z,8.45
2022-08-24T15:06:25.215Z,9.00
2022-08-24T15:08:52.401Z,13.68
2022-08-24T15:11:26.460Z,17.77
2022-08-24T15:13:58.127Z,7.78
2022-08-24T15:16:53.418Z,9.00
2022-08-24T15:19:34.316Z,7.28
2022-08-24T15:22:07.698Z,7.10
2022-08-24T15:24:43.863Z,9.90
2022-08-24T15:27:20.230Z,10.60
2022-08-24T15:29:53.678Z,10.52
2022-08-24T15:32:27.829Z,8.82
2022-08-24T15:34:59.501Z,10.88
2022-08-24T15:37:31.829Z,9.50
2022-08-24T15:40:02.138Z,8.60
2022-08-24T15:42:35.057Z,11.23
2022-08-24T15:45:06.445Z,10.70
2022-08-24T15:47:37.408Z,10.93
2022-08-24T15:50:20.415Z,11.27
2022-08-24T15:52:55.141Z,10.10
2022-08-24T15:55:48.885Z,16.55
2022-08-24T15:58:32.250Z,12.15
2022-08-24T16:01:37.063Z,16.80
2022-08-24T16:04:08.202Z,9.93
2022-08-24T16:06:42.369Z,8.98
2022-08-24T16:09:16.081Z,9.60
2022-08-24T16:11:49.707Z,11.88
2022-08-24T16:14:28.615Z,11.88
2022-08-24T16:16:59.285Z,11.48
2022-08-24T16:19:30.272Z,10.05
2022-08-24T16:22:03.899Z,12.65
2022-08-24T16:24:36.074Z,9.15
2022-08-24T16:27:08.408Z,12.63
2022-08-24T16:29:51.096Z,9.13
2022-08-24T16:32:31.493Z,6.60
2022-08-24T16:35:18.076Z,13.15
2022-08-24T16:37:48.389Z,12.15
2022-08-24T16:40:17.559Z,12.35
2022-08-24T16:42:46.912Z,11.55
2022-08-24T16:45:19.059Z,14.50
2022-08-24T16:47:48.620Z,15.50
2022-08-24T16:50:19.163Z,11.55
2022-08-24T16:52:50.222Z,9.35
2022-08-24T16:55:19.360Z,10.63
2022-08-24T16:57:48.377Z,15.77
2022-08-24T17:00:22.079Z,17.77
2022-08-24T17:02:51.215Z,12.38
2022-08-24T17:05:20.424Z,16.40
2022-08-24T17:07:51.858Z,11.10
2022-08-24T17:10:23.254Z,13.45
2022-08-24T17:12:52.075Z,10.95
2022-08-24T17:15:21.961Z,14.13
2022-08-24T17:18:01.636Z,14.43
2022-08-24T17:20:30.872Z,13.52
2022-08-24T17:23:01.369Z,7.97
2022-08-24T17:25:31.334Z,12.68
2022-08-24T17:28:01.389Z,11.00
2022-08-24T17:30:30.886Z,12.38
2022-08-24T17:33:00.769Z,12.48
2022-08-24T17:35:29.810Z,14.65
2022-08-24T17:38:01.961Z,14.25
2022-08-24T17:40:32.014Z,14.27
2022-08-24T17:43:01.209Z,9.38
2022-08-24T17:45:30.278Z,12.68
2022-08-24T17:47:59.069Z,12.23
2022-08-24T17:50:28.576Z,14.27
2022-08-24T17:53:06.728Z,11.77
2022-08-24T17:55:37.292Z,13.05
2022-08-24T17:58:06.026Z,12.85
2022-08-24T18:00:34.988Z,15.73
2022-08-24T18:03:03.938Z,11.35
2022-08-24T18:05:34.590Z,15.75
2022-08-24T18:08:04.419Z,15.65
2022-08-24T18:10:34.346Z,14.45
2022-08-24T18:13:05.413Z,14.35
2022-08-24T18:15:36.601Z,14.98
2022-08-24T18:18:08.933Z,12.98
2022-08-24T18:20:40.659Z,8.10
2022-08-24T18:23:11.964Z,11.30
2022-08-24T18:25:47.354Z,13.73
2022-08-24T18:28:21.511Z,16.20
2022-08-24T18:30:50.447Z,12.30
2022-08-24T18:33:19.367Z,12.13
2022-08-24T18:35:48.601Z,13.90
2022-08-24T18:38:18.144Z,14.43
2022-08-24T18:40:52.843Z,19.40
2022-08-24T18:43:25.130Z,16.70
2022-08-24T18:45:54.581Z,14.00
2022-08-24T18:48:23.833Z,13.55
2022-08-24T18:50:53.335Z,16.13
2022-08-24T18:53:24.833Z,13.80
2022-08-24T18:55:54.454Z,13.77
2022-08-24T18:58:24.890Z,18.63
2022-08-24T19:00:53.722Z,12.20
2022-08-24T19:03:27.181Z,15.02
2022-08-24T19:05:56.730Z,18.30
2022-08-24T19:08:25.614Z,15.00
2022-08-24T19:10:54.736Z,19.58
2022-08-24T19:13:25.302Z,16.58
2022-08-24T19:15:54.295Z,11.93
2022-08-24T19:18:23.997Z,12.52
2022-08-24T19:20:55.966Z,16.95
2022-08-24T19:23:27.719Z,16.08
2022-08-24T19:25:58.169Z,23.05
2022-08-24T19:28:29.412Z,16.45
2022-08-24T19:31:02.268Z,16.05
2022-08-24T19:33:36.200Z,19.20
2022-08-24T19:36:06.203Z,23.23
2022-08-24T19:38:35.191Z,21.52
2022-08-24T19:41:11.170Z,20.33
2022-08-24T19:43:56.847Z,26.38
2022-08-24T19:46:26.055Z,22.75
2022-08-24T19:48:55.166Z,17.55
2022-08-24T19:51:23.767Z,24.50
2022-08-24T19:53:52.914Z,31.25
2022-08-24T19:56:21.808Z,17.27
2022-08-24T19:59:00.709Z,19.52
2022-08-24T20:01:34.648Z,17.10
2022-08-24T20:04:06.298Z,20.85
2022-08-24T20:06:36.937Z,17.83
2022-08-24T20:09:06.271Z,17.92
2022-08-24T20:11:35.487Z,17.63
2022-08-24T20:14:06.170Z,19.65
2022-08-24T20:16:38.370Z,22.38
2022-08-24T20:19:07.586Z,23.08
2022-08-24T20:21:37.696Z,21.27
2022-08-24T20:24:07.036Z,19.40
2022-08-24T20:26:40.205Z,19.10
2022-08-24T20:29:11.372Z,15.80
2022-08-24T20:31:41.714Z,20.45
2022-08-24T20:34:10.803Z,17.05
2022-08-24T20:36:41.348Z,19.85
2022-08-24T20:39:13.952Z,18.70
2022-08-24T20:41:42.777Z,24.90
2022-08-24T20:44:13.137Z,17.45
2022-08-24T20:46:42.746Z,21.40
2022-08-24T20:49:16.878Z,20.90
2022-08-24T20:51:45.722Z,17.55
2022-08-24T20:54:15.487Z,17.33
2022-08-24T20:56:45.527Z,20.05
2022-08-24T20:59:18.261Z,19.27
2022-08-24T21:01:48.264Z,25.63
2022-08-24T21:04:16.900Z,16.27
2022-08-24T21:06:46.161Z,18.27
2022-08-24T21:09:19.422Z,20.65
2022-08-24T21:11:48.281Z,19.33
2022-08-24T21:14:18.551Z,20.77
2022-08-24T21:16:47.376Z,19.88
2022-08-24T21:19:17.724Z,20.95
2022-08-24T21:21:48.151Z,23.13
2022-08-24T21:24:17.127Z,18.40
2022-08-24T21:26:46.517Z,20.40
2022-08-24T21:29:15.394Z,26.88
2022-08-24T21:32:05.777Z,24.50
2022-08-24T21:34:42.631Z,20.20
2022-08-24T21:37:12.475Z,16.30
2022-08-24T21:39:41.095Z,17.45
2022-08-24T21:42:10.234Z,21.00
2022-08-24T21:44:38.835Z,21.38
2022-08-24T21:47:08.999Z,19.48
2022-08-24T21:49:37.629Z,21.02
2022-08-24T21:52:06.963Z,24.98
2022-08-24T21:54:36.201Z,19.65
2022-08-24T21:57:06.227Z,22.00
2022-08-24T21:59:35.275Z,18.15
2022-08-24T22:02:04.101Z,18.42
2022-08-24T22:04:34.677Z,23.13
2022-08-24T22:07:03.655Z,19.20
2022-08-24T22:09:32.472Z,17.50
2022-08-24T22:12:01.539Z,16.55
2022-08-24T22:14:30.340Z,18.02
2022-08-24T22:16:58.908Z,18.98
2022-08-24T22:19:27.566Z,18.67
2022-08-24T22:21:57.518Z,21.23
2022-08-24T22:24:26.230Z,16.95
2022-08-24T22:26:55.129Z,16.10
2022-08-24T22:29:23.839Z,17.30
2022-08-24T22:31:52.846Z,19.08
2022-08-24T22:34:21.599Z,19.33
2022-08-24T22:36:52.710Z,20.88
2022-08-24T22:39:24.428Z,16.40
2022-08-24T22:41:53.318Z,16.92
2022-08-24T22:44:22.468Z,19.23
2022-08-24T22:46:53.454Z,20.52
2022-08-24T22:49:24.843Z,19.80
2022-08-24T22:51:54.139Z,16.90
2022-08-24T22:54:26.232Z,16.05
2022-08-24T22:56:57.634Z,18.02
2022-08-24T22:59:28.511Z,17.75
2022-08-24T23:01:58.665Z,23.38
2022-08-24T23:04:32.065Z,20.00
2022-08-24T23:07:01.910Z,14.98
2022-08-24T23:09:44.023Z,23.20
2022-08-24T23:12:16.056Z,19.95
2022-08-24T23:14:44.836Z,19.10
2022-08-24T23:17:13.680Z,16.42
2022-08-24T23:19:59.926Z,16.50
2022-08-24T23:22:31.205Z,15.43
2022-08-24T23:25:01.640Z,18.73
2022-08-24T23:27:32.912Z,14.88
2022-08-24T23:30:09.393Z,25.52
2022-08-24T23:32:38.311Z,16.17
2022-08-24T23:35:08.150Z,16.75
2022-08-24T23:37:37.294Z,14.90
2022-08-24T23:40:09.325Z,15.88
2022-08-24T23:42:38.402Z,20.98
2022-08-24T23:45:11.142Z,16.92
2022-08-24T23:47:41.477Z,22.20
2022-08-24T23:50:10.899Z,19.75
2022-08-24T23:52:40.840Z,20.02
2022-08-24T23:55:21.058Z,15.85
2022-08-24T23:57:51.466Z,23.80
